sensor_id;sensor_type;location;lat;lon;timestamp;pressure;altitude;pressure_sealevel;temperature;humidity
22662;BME280;11497;52.222;21.246;2023-02-04T00:00:19;99791.03;;;-0.77;100.00
22662;BME280;11497;52.222;21.246;2023-02-04T00:03:07;99791.03;;;-0.83;100.00
22662;BME280;11497;52.222;21.246;2023-02-04T00:05:35;99801.25;;;-0.98;100.00
22662;BME280;11497;52.222;21.246;2023-02-04T00:08:03;99799.59;;;-0.90;100.00
22662;BME280;11497;52.222;21.246;2023-02-04T00:10:32;99811.56;;;-0.91;100.00
22662;BME280;11497;52.222;21.246;2023-02-04T00:13:01;99811.56;;;-0.95;100.00
22662;BME280;11497;52.222;21.246;2023-02-04T00:15:29;99824.38;;;-1.02;100.00
22662;BME280;11497;52.222;21.246;2023-02-04T00:17:57;99826.94;;;-1.02;100.00
22662;BME280;11497;52.222;21.246;2023-02-04T00:20:25;99832.06;;;-1.02;100.00
22662;BME280;11497;52.222;21.246;2023-02-04T00:22:53;99838.88;;;-1.07;100.00
22662;BME280;11497;52.222;21.246;2023-02-04T00:25:21;99840.59;;;-1.09;100.00
22662;BME280;11497;52.222;21.246;2023-02-04T00:27:49;99856.03;;;-1.03;100.00
22662;BME280;11497;52.222;21.246;2023-02-04T00:30:17;99863.75;;;-0.99;100.00
22662;BME280;11497;52.222;21.246;2023-02-04T00:32:45;99870.63;;;-0.95;100.00
22662;BME280;11497;52.222;21.246;2023-02-04T00:35:13;99879.13;;;-1.07;100.00
22662;BME280;11497;52.222;21.246;2023-02-04T00:37:41;99889.44;;;-0.99;100.00
22662;BME280;11497;52.222;21.246;2023-02-04T00:40:09;99894.56;;;-1.03;100.00
22662;BME280;11497;52.222;21.246;2023-02-04T00:42:39;99901.41;;;-1.02;100.00
22662;BME280;11497;52.222;21.246;2023-02-04T00:45:08;99903.03;;;-1.17;100.00
22662;BME280;11497;52.222;21.246;2023-02-04T00:47:36;99909.94;;;-1.06;100.00
22662;BME280;11497;52.222;21.246;2023-02-04T00:50:04;99916.81;;;-1.03;100.00
22662;BME280;11497;52.222;21.246;2023-02-04T00:52:32;99926.19;;;-1.10;100.00
22662;BME280;11497;52.222;21.246;2023-02-04T00:55:02;99933.03;;;-1.12;100.00
22662;BME280;11497;52.222;21.246;2023-02-04T00:57:30;99941.56;;;-1.13;100.00
22662;BME280;11497;52.222;21.246;2023-02-04T00:59:57;99944.19;;;-1.05;100.00
22662;BME280;11497;52.222;21.246;2023-02-04T01:02:25;99953.63;;;-1.03;100.00
22662;BME280;11497;52.222;21.246;2023-02-04T01:04:53;99952.78;;;-1.02;100.00
22662;BME280;11497;52.222;21.246;2023-02-04T01:07:22;99962.19;;;-1.04;100.00
22662;BME280;11497;52.222;21.246;2023-02-04T01:09:50;99976.66;;;-1.15;100.00
22662;BME280;11497;52.222;21.246;2023-02-04T01:12:17;99977.53;;;-1.10;100.00
22662;BME280;11497;52.222;21.246;2023-02-04T01:14:45;99985.22;;;-1.11;100.00
22662;BME280;11497;52.222;21.246;2023-02-04T01:17:13;99996.28;;;-1.20;100.00
22662;BME280;11497;52.222;21.246;2023-02-04T01:19:41;100000.66;;;-1.08;100.00
22662;BME280;11497;52.222;21.246;2023-02-04T01:22:09;100008.38;;;-1.07;100.00
22662;BME280;11497;52.222;21.246;2023-02-04T01:24:36;100014.38;;;-1.08;100.00
22662;BME280;11497;52.222;21.246;2023-02-04T01:27:23;100021.19;;;-1.13;100.00
22662;BME280;11497;52.222;21.246;2023-02-04T01:29:51;100038.31;;;-1.10;100.00
22662;BME280;11497;52.222;21.246;2023-02-04T01:32:19;100036.63;;;-1.08;100.00
22662;BME280;11497;52.222;21.246;2023-02-04T01:34:46;100041.75;;;-1.08;100.00
22662;BME280;11497;52.222;21.246;2023-02-04T01:37:14;100048.63;;;-1.04;100.00
22662;BME280;11497;52.222;21.246;2023-02-04T01:39:42;100055.50;;;-1.05;100.00
22662;BME280;11497;52.222;21.246;2023-02-04T01:42:11;100071.75;;;-1.06;100.00
22662;BME280;11497;52.222;21.246;2023-02-04T01:44:39;100068.34;;;-1.03;100.00
22662;BME280;11497;52.222;21.246;2023-02-04T01:47:07;100071.72;;;-1.07;100.00
22662;BME280;11497;52.222;21.246;2023-02-04T01:49:35;100081.16;;;-1.06;100.00
22662;BME280;11497;52.222;21.246;2023-02-04T01:52:04;100093.13;;;-1.07;100.00
22662;BME280;11497;52.222;21.246;2023-02-04T01:54:32;100109.44;;;-1.02;100.00
22662;BME280;11497;52.222;21.246;2023-02-04T01:57:00;100117.97;;;-1.06;100.00
22662;BME280;11497;52.222;21.246;2023-02-04T01:59:28;100128.25;;;-1.06;100.00
22662;BME280;11497;52.222;21.246;2023-02-04T02:01:59;100131.72;;;-1.01;100.00
22662;BME280;11497;52.222;21.246;2023-02-04T02:04:32;100123.91;;;-1.11;100.00
22662;BME280;11497;52.222;21.246;2023-02-04T02:07:04;100147.09;;;-1.04;100.00
22662;BME280;11497;52.222;21.246;2023-02-04T02:09:33;100156.50;;;-1.06;100.00
22662;BME280;11497;52.222;21.246;2023-02-04T02:12:02;100162.53;;;-1.01;100.00
22662;BME280;11497;52.222;21.246;2023-02-04T02:14:31;100162.44;;;-1.10;100.00
22662;BME280;11497;52.222;21.246;2023-02-04T02:16:59;100164.22;;;-1.03;100.00
22662;BME280;11497;52.222;21.246;2023-02-04T02:19:31;100178.81;;;-1.00;100.00
22662;BME280;11497;52.222;21.246;2023-02-04T02:22:26;100185.59;;;-1.07;100.00
22662;BME280;11497;52.222;21.246;2023-02-04T02:24:55;100203.59;;;-1.04;100.00
22662;BME280;11497;52.222;21.246;2023-02-04T02:27:23;100217.31;;;-1.02;100.00
22662;BME280;11497;52.222;21.246;2023-02-04T02:29:51;100230.13;;;-1.05;100.00
22662;BME280;11497;52.222;21.246;2023-02-04T02:32:19;100244.69;;;-1.04;100.00
22662;BME280;11497;52.222;21.246;2023-02-04T02:34:47;100246.31;;;-1.12;100.00
22662;BME280;11497;52.222;21.246;2023-02-04T02:37:15;100261.75;;;-1.09;100.00
22662;BME280;11497;52.222;21.246;2023-02-04T02:39:44;100260.97;;;-1.03;100.00
22662;BME280;11497;52.222;21.246;2023-02-04T02:42:15;100269.53;;;-1.04;100.00
22662;BME280;11497;52.222;21.246;2023-02-04T02:44:45;100272.00;;;-1.12;100.00
22662;BME280;11497;52.222;21.246;2023-02-04T02:47:16;100285.72;;;-1.10;100.00
22662;BME280;11497;52.222;21.246;2023-02-04T02:49:47;100296.81;;;-1.12;100.00
22662;BME280;11497;52.222;21.246;2023-02-04T02:52:16;100312.19;;;-1.15;100.00
22662;BME280;11497;52.222;21.246;2023-02-04T02:54:44;100327.53;;;-1.18;100.00
22662;BME280;11497;52.222;21.246;2023-02-04T02:57:20;100332.75;;;-1.14;100.00
22662;BME280;11497;52.222;21.246;2023-02-04T02:59:48;100340.44;;;-1.14;100.00
22662;BME280;11497;52.222;21.246;2023-02-04T03:02:19;100352.44;;;-1.13;100.00
22662;BME280;11497;52.222;21.246;2023-02-04T03:04:53;100356.75;;;-1.10;100.00
22662;BME280;11497;52.222;21.246;2023-02-04T03:07:26;100368.75;;;-1.11;100.00
22662;BME280;11497;52.222;21.246;2023-02-04T03:09:53;100380.81;;;-1.05;100.00
22662;BME280;11497;52.222;21.246;2023-02-04T03:12:21;100386.81;;;-1.05;100.00
22662;BME280;11497;52.222;21.246;2023-02-04T03:14:49;100383.44;;;-1.01;100.00
22662;BME280;11497;52.222;21.246;2023-02-04T03:17:17;100398.03;;;-0.98;100.00
22662;BME280;11497;52.222;21.246;2023-02-04T03:19:46;100404.03;;;-0.97;100.00
22662;BME280;11497;52.222;21.246;2023-02-04T03:22:14;100416.03;;;-0.96;100.00
22662;BME280;11497;52.222;21.246;2023-02-04T03:24:44;100414.34;;;-0.94;100.00
22662;BME280;11497;52.222;21.246;2023-02-04T03:27:14;100421.13;;;-0.99;100.00
22662;BME280;11497;52.222;21.246;2023-02-04T03:29:45;100428.03;;;-0.95;100.00
22662;BME280;11497;52.222;21.246;2023-02-04T03:32:13;100434.06;;;-0.93;100.00
22662;BME280;11497;52.222;21.246;2023-02-04T03:34:40;100441.63;;;-1.03;100.00
22662;BME280;11497;52.222;21.246;2023-02-04T03:37:08;100455.47;;;-0.94;100.00
22662;BME280;11497;52.222;21.246;2023-02-04T03:39:36;100458.81;;;-0.98;100.00
22662;BME280;11497;52.222;21.246;2023-02-04T03:42:04;100473.22;;;-1.08;100.00
22662;BME280;11497;52.222;21.246;2023-02-04T03:44:32;100475.91;;;-1.01;100.00
22662;BME280;11497;52.222;21.246;2023-02-04T03:47:00;100509.31;;;-1.01;100.00
22662;BME280;11497;52.222;21.246;2023-02-04T03:49:27;100508.34;;;-1.07;100.00
22662;BME280;11497;52.222;21.246;2023-02-04T03:51:55;100505.78;;;-1.07;100.00
22662;BME280;11497;52.222;21.246;2023-02-04T03:54:23;100506.50;;;-1.16;100.00
22662;BME280;11497;52.222;21.246;2023-02-04T03:56:51;100514.25;;;-1.13;100.00
22662;BME280;11497;52.222;21.246;2023-02-04T03:59:19;100521.94;;;-1.13;100.00
22662;BME280;11497;52.222;21.246;2023-02-04T04:01:47;100524.47;;;-1.16;100.00
22662;BME280;11497;52.222;21.246;2023-02-04T04:04:14;100540.63;;;-1.23;100.00
22662;BME280;11497;52.222;21.246;2023-02-04T04:06:42;100554.16;;;-1.33;100.00
22662;BME280;11497;52.222;21.246;2023-02-04T04:09:10;100572.97;;;-1.34;100.00
22662;BME280;11497;52.222;21.246;2023-02-04T04:11:38;100575.38;;;-1.43;100.00
22662;BME280;11497;52.222;21.246;2023-02-04T04:14:06;100586.41;;;-1.47;100.00
22662;BME280;11497;52.222;21.246;2023-02-04T04:16:34;100599.25;;;-1.47;100.00
22662;BME280;11497;52.222;21.246;2023-02-04T04:19:01;100592.25;;;-1.56;99.61
22662;BME280;11497;52.222;21.246;2023-02-04T04:21:29;100601.63;;;-1.56;100.00
22662;BME280;11497;52.222;21.246;2023-02-04T04:23:57;100601.31;;;-1.75;99.80
22662;BME280;11497;52.222;21.246;2023-02-04T04:26:25;100609.06;;;-1.70;99.57
22662;BME280;11497;52.222;21.246;2023-02-04T04:28:53;100629.59;;;-1.70;100.00
22662;BME280;11497;52.222;21.246;2023-02-04T04:31:21;100618.25;;;-1.83;99.80
22662;BME280;11497;52.222;21.246;2023-02-04T04:33:48;100649.56;;;-1.55;100.00
22662;BME280;11497;52.222;21.246;2023-02-04T04:36:16;100646.22;;;-1.51;100.00
22662;BME280;11497;52.222;21.246;2023-02-04T04:38:44;100656.56;;;-1.48;100.00
22662;BME280;11497;52.222;21.246;2023-02-04T04:41:12;100669.19;;;-1.57;100.00
22662;BME280;11497;52.222;21.246;2023-02-04T04:43:40;100671.84;;;-1.54;100.00
22662;BME280;11497;52.222;21.246;2023-02-04T04:46:08;100685.75;;;-1.43;100.00
22662;BME280;11497;52.222;21.246;2023-02-04T04:48:35;100692.88;;;-1.28;99.90
22662;BME280;11497;52.222;21.246;2023-02-04T04:51:03;100695.53;;;-1.24;99.75
22662;BME280;11497;52.222;21.246;2023-02-04T04:53:31;100701.59;;;-1.20;99.41
22662;BME280;11497;52.222;21.246;2023-02-04T04:55:59;100715.34;;;-1.17;99.91
22662;BME280;11497;52.222;21.246;2023-02-04T04:58:27;100720.44;;;-1.20;99.56
22662;BME280;11497;52.222;21.246;2023-02-04T05:00:55;100719.75;;;-1.11;99.27
22662;BME280;11497;52.222;21.246;2023-02-04T05:03:22;100729.25;;;-1.07;99.27
22662;BME280;11497;52.222;21.246;2023-02-04T05:05:50;100728.47;;;-1.03;98.70
22662;BME280;11497;52.222;21.246;2023-02-04T05:08:18;100739.44;;;-1.12;98.69
22662;BME280;11497;52.222;21.246;2023-02-04T05:10:48;100747.16;;;-1.10;99.05
22662;BME280;11497;52.222;21.246;2023-02-04T05:13:16;100750.63;;;-1.08;98.59
22662;BME280;11497;52.222;21.246;2023-02-04T05:15:44;100752.25;;;-1.13;98.52
22662;BME280;11497;52.222;21.246;2023-02-04T05:18:12;100759.41;;;-0.97;98.91
22662;BME280;11497;52.222;21.246;2023-02-04T05:20:39;100780.59;;;-1.09;98.76
22662;BME280;11497;52.222;21.246;2023-02-04T05:23:07;100775.69;;;-0.96;98.63
22662;BME280;11497;52.222;21.246;2023-02-04T05:25:35;100794.47;;;-1.01;98.61
22662;BME280;11497;52.222;21.246;2023-02-04T05:28:03;100798.00;;;-0.94;98.80
22662;BME280;11497;52.222;21.246;2023-02-04T05:30:31;100804.84;;;-0.94;98.42
22662;BME280;11497;52.222;21.246;2023-02-04T05:32:59;100813.28;;;-1.02;98.32
22662;BME280;11497;52.222;21.246;2023-02-04T05:35:28;100818.47;;;-0.98;98.69
22662;BME280;11497;52.222;21.246;2023-02-04T05:37:55;100823.84;;;-0.86;98.73
22662;BME280;11497;52.222;21.246;2023-02-04T05:40:23;100838.56;;;-0.78;98.70
22662;BME280;11497;52.222;21.246;2023-02-04T05:42:51;100839.44;;;-0.77;98.20
22662;BME280;11497;52.222;21.246;2023-02-04T05:45:19;100848.13;;;-0.71;98.41
22662;BME280;11497;52.222;21.246;2023-02-04T05:47:47;100848.78;;;-0.81;98.09
22662;BME280;11497;52.222;21.246;2023-02-04T05:50:15;100860.84;;;-0.78;97.85
22662;BME280;11497;52.222;21.246;2023-02-04T05:52:43;100872.13;;;-0.70;98.13
22662;BME280;11497;52.222;21.246;2023-02-04T05:55:11;100875.28;;;-0.83;97.67
22662;BME280;11497;52.222;21.246;2023-02-04T05:57:39;100877.97;;;-0.79;97.34
22662;BME280;11497;52.222;21.246;2023-02-04T06:00:09;100888.28;;;-0.77;97.36
22662;BME280;11497;52.222;21.246;2023-02-04T06:02:40;100906.78;;;-0.93;97.24
22662;BME280;11497;52.222;21.246;2023-02-04T06:05:08;100914.56;;;-0.90;97.03
22662;BME280;11497;52.222;21.246;2023-02-04T06:07:36;100919.69;;;-0.92;96.98
22662;BME280;11497;52.222;21.246;2023-02-04T06:10:04;100935.13;;;-0.90;97.00
22662;BME280;11497;52.222;21.246;2023-02-04T06:12:32;100943.78;;;-0.85;96.34
22662;BME280;11497;52.222;21.246;2023-02-04T06:15:01;100956.28;;;-1.02;96.31
22662;BME280;11497;52.222;21.246;2023-02-04T06:17:29;100959.91;;;-0.92;95.96
22662;BME280;11497;52.222;21.246;2023-02-04T06:19:56;100965.81;;;-0.96;95.84
22662;BME280;11497;52.222;21.246;2023-02-04T06:22:24;100971.88;;;-0.94;96.12
22662;BME280;11497;52.222;21.246;2023-02-04T06:24:53;100976.97;;;-0.96;95.91
22662;BME280;11497;52.222;21.246;2023-02-04T06:27:21;100994.84;;;-1.01;95.34
22662;BME280;11497;52.222;21.246;2023-02-04T06:29:53;100995.50;;;-1.09;95.30
22662;BME280;11497;52.222;21.246;2023-02-04T06:32:21;101001.50;;;-1.09;95.12
22662;BME280;11497;52.222;21.246;2023-02-04T06:34:49;101006.78;;;-1.03;94.60
22662;BME280;11497;52.222;21.246;2023-02-04T06:37:20;100996.34;;;-1.09;94.07
22662;BME280;11497;52.222;21.246;2023-02-04T06:39:51;101023.47;;;-1.20;93.79
22662;BME280;11497;52.222;21.246;2023-02-04T06:42:20;101023.88;;;-1.39;93.63
22662;BME280;11497;52.222;21.246;2023-02-04T06:44:48;101036.63;;;-1.42;93.89
22662;BME280;11497;52.222;21.246;2023-02-04T06:47:16;101040.13;;;-1.40;94.09
22662;BME280;11497;52.222;21.246;2023-02-04T06:49:44;101051.97;;;-1.45;94.03
22662;BME280;11497;52.222;21.246;2023-02-04T06:52:12;101054.63;;;-1.42;93.66
22662;BME280;11497;52.222;21.246;2023-02-04T06:54:40;101062.06;;;-1.51;94.08
22662;BME280;11497;52.222;21.246;2023-02-04T06:57:08;101073.50;;;-1.72;93.96
22662;BME280;11497;52.222;21.246;2023-02-04T06:59:37;101078.56;;;-1.75;93.29
22662;BME280;11497;52.222;21.246;2023-02-04T07:02:06;101080.41;;;-1.69;93.56
22662;BME280;11497;52.222;21.246;2023-02-04T07:04:35;101089.84;;;-1.68;93.55
22662;BME280;11497;52.222;21.246;2023-02-04T07:07:03;101100.16;;;-1.35;93.07
22662;BME280;11497;52.222;21.246;2023-02-04T07:09:31;101107.72;;;-1.07;92.15
22662;BME280;11497;52.222;21.246;2023-02-04T07:11:59;101111.22;;;-1.05;91.40
22662;BME280;11497;52.222;21.246;2023-02-04T07:14:27;101112.09;;;-0.68;90.53
22662;BME280;11497;52.222;21.246;2023-02-04T07:16:54;101121.84;;;-0.91;89.12
22662;BME280;11497;52.222;21.246;2023-02-04T07:19:24;101137.56;;;-0.77;89.01
22662;BME280;11497;52.222;21.246;2023-02-04T07:21:52;101148.25;;;-0.96;88.96
22662;BME280;11497;52.222;21.246;2023-02-04T07:24:23;101151.44;;;-1.05;88.43
22662;BME280;11497;52.222;21.246;2023-02-04T07:26:51;101159.34;;;-0.97;89.03
22662;BME280;11497;52.222;21.246;2023-02-04T07:29:19;101162.19;;;-0.87;88.76
22662;BME280;11497;52.222;21.246;2023-02-04T07:31:52;101169.25;;;-0.44;88.23
22662;BME280;11497;52.222;21.246;2023-02-04T07:34:21;101176.97;;;-0.42;87.14
22662;BME280;11497;52.222;21.246;2023-02-04T07:36:49;101180.72;;;-0.29;86.39
22662;BME280;11497;52.222;21.246;2023-02-04T07:39:17;101184.59;;;-0.47;85.68
22662;BME280;11497;52.222;21.246;2023-02-04T07:41:45;101196.31;;;-0.58;85.78
22662;BME280;11497;52.222;21.246;2023-02-04T07:44:20;101204.00;;;-0.23;85.46
22662;BME280;11497;52.222;21.246;2023-02-04T07:46:48;101204.00;;;-0.23;84.35
22662;BME280;11497;52.222;21.246;2023-02-04T07:49:16;101214.38;;;-0.20;84.34
22662;BME280;11497;52.222;21.246;2023-02-04T07:51:44;101226.41;;;-0.19;83.43
22662;BME280;11497;52.222;21.246;2023-02-04T07:54:12;101225.41;;;-0.24;83.11
22662;BME280;11497;52.222;21.246;2023-02-04T07:56:39;101227.28;;;-0.19;82.39
22662;BME280;11497;52.222;21.246;2023-02-04T07:59:07;101232.06;;;0.04;82.28
22662;BME280;11497;52.222;21.246;2023-02-04T08:01:35;101239.59;;;-0.06;81.92
22662;BME280;11497;52.222;21.246;2023-02-04T08:04:03;101234.09;;;-0.21;81.05
22662;BME280;11497;52.222;21.246;2023-02-04T08:06:31;101237.00;;;-0.07;80.89
22662;BME280;11497;52.222;21.246;2023-02-04T08:08:59;101241.63;;;0.09;80.20
22662;BME280;11497;52.222;21.246;2023-02-04T08:11:27;101235.72;;;0.54;79.98
22662;BME280;11497;52.222;21.246;2023-02-04T08:13:55;101248.56;;;1.41;78.91
22662;BME280;11497;52.222;21.246;2023-02-04T08:16:22;101251.22;;;1.44;77.00
22662;BME280;11497;52.222;21.246;2023-02-04T08:18:50;101254.81;;;1.06;76.06
22662;BME280;11497;52.222;21.246;2023-02-04T08:21:18;101258.22;;;1.05;76.25
22662;BME280;11497;52.222;21.246;2023-02-04T08:23:46;101260.84;;;1.54;76.23
22662;BME280;11497;52.222;21.246;2023-02-04T08:26:14;101259.44;;;1.72;74.54
22662;BME280;11497;52.222;21.246;2023-02-04T08:28:42;101264.22;;;1.50;73.47
22662;BME280;11497;52.222;21.246;2023-02-04T08:31:09;101274.34;;;1.89;73.58
22662;BME280;11497;52.222;21.246;2023-02-04T08:33:39;101277.59;;;2.33;73.18
22662;BME280;11497;52.222;21.246;2023-02-04T08:36:07;101283.53;;;2.28;72.32
22662;BME280;11497;52.222;21.246;2023-02-04T08:38:35;101276.69;;;2.96;71.81
22662;BME280;11497;52.222;21.246;2023-02-04T08:41:04;101284.31;;;3.67;69.76
22662;BME280;11497;52.222;21.246;2023-02-04T08:43:32;101291.63;;;4.17;68.63
22662;BME280;11497;52.222;21.246;2023-02-04T08:46:00;101295.28;;;4.50;67.28
22662;BME280;11497;52.222;21.246;2023-02-04T08:48:28;101302.28;;;4.64;66.04
22662;BME280;11497;52.222;21.246;2023-02-04T08:50:56;101311.00;;;4.82;65.93
22662;BME280;11497;52.222;21.246;2023-02-04T08:53:24;101301.34;;;4.50;65.04
22662;BME280;11497;52.222;21.246;2023-02-04T08:55:52;101309.00;;;4.33;66.00
22662;BME280;11497;52.222;21.246;2023-02-04T08:58:20;101311.97;;;5.02;66.18
22662;BME280;11497;52.222;21.246;2023-02-04T09:00:47;101319.91;;;5.64;66.15
22662;BME280;11497;52.222;21.246;2023-02-04T09:03:16;101314.28;;;4.47;64.73
22662;BME280;11497;52.222;21.246;2023-02-04T09:05:43;101316.22;;;4.89;64.89
22662;BME280;11497;52.222;21.246;2023-02-04T09:08:11;101318.88;;;5.01;64.20
22662;BME280;11497;52.222;21.246;2023-02-04T09:10:39;101333.66;;;5.18;63.51
22662;BME280;11497;52.222;21.246;2023-02-04T09:13:07;101314.31;;;4.55;61.98
22662;BME280;11497;52.222;21.246;2023-02-04T09:15:38;101324.09;;;5.08;62.53
22662;BME280;11497;52.222;21.246;2023-02-04T09:18:06;101319.91;;;5.52;61.87
22662;BME280;11497;52.222;21.246;2023-02-04T09:20:45;101324.69;;;4.55;59.82
22662;BME280;11497;52.222;21.246;2023-02-04T09:23:14;101318.09;;;5.15;60.07
22662;BME280;11497;52.222;21.246;2023-02-04T09:25:43;101313.78;;;5.32;59.44
22662;BME280;11497;52.222;21.246;2023-02-04T09:28:12;101326.00;;;5.82;59.62
22662;BME280;11497;52.222;21.246;2023-02-04T09:30:42;101325.19;;;6.31;59.09
22662;BME280;11497;52.222;21.246;2023-02-04T09:33:12;101328.66;;;5.94;57.76
22662;BME280;11497;52.222;21.246;2023-02-04T09:35:40;101333.81;;;5.85;57.00
22662;BME280;11497;52.222;21.246;2023-02-04T09:38:08;101337.31;;;6.17;56.34
22662;BME280;11497;52.222;21.246;2023-02-04T09:40:41;101339.84;;;6.63;56.28
22662;BME280;11497;52.222;21.246;2023-02-04T09:43:14;101341.56;;;6.82;54.47
22662;BME280;11497;52.222;21.246;2023-02-04T09:45:43;101340.41;;;7.41;54.80
22662;BME280;11497;52.222;21.246;2023-02-04T09:48:12;101342.16;;;7.39;53.67
22662;BME280;11497;52.222;21.246;2023-02-04T09:50:41;101353.78;;;6.27;52.56
22662;BME280;11497;52.222;21.246;2023-02-04T09:53:22;101357.25;;;6.38;53.19
22662;BME280;11497;52.222;21.246;2023-02-04T09:55:51;101352.00;;;6.56;52.45
22662;BME280;11497;52.222;21.246;2023-02-04T09:58:21;101365.91;;;6.13;51.78
22662;BME280;11497;52.222;21.246;2023-02-04T10:01:04;101359.75;;;5.69;51.70
22662;BME280;11497;52.222;21.246;2023-02-04T10:03:33;101369.09;;;5.10;52.52
22662;BME280;11497;52.222;21.246;2023-02-04T10:06:02;101371.81;;;5.40;51.74
22662;BME280;11497;52.222;21.246;2023-02-04T10:08:32;101372.66;;;5.38;52.24
22662;BME280;11497;52.222;21.246;2023-02-04T10:11:00;101376.97;;;5.37;51.65
22662;BME280;11497;52.222;21.246;2023-02-04T10:13:35;101382.66;;;3.64;52.25
22662;BME280;11497;52.222;21.246;2023-02-04T10:16:12;101381.44;;;4.15;53.55
22662;BME280;11497;52.222;21.246;2023-02-04T10:18:41;101386.94;;;3.61;53.68
22662;BME280;11497;52.222;21.246;2023-02-04T10:21:16;101384.28;;;3.56;54.18
22662;BME280;11497;52.222;21.246;2023-02-04T10:23:47;101384.19;;;3.44;52.66
22662;BME280;11497;52.222;21.246;2023-02-04T10:26:16;101393.84;;;2.35;53.35
22662;BME280;11497;52.222;21.246;2023-02-04T10:28:45;101392.41;;;1.53;55.40
22662;BME280;11497;52.222;21.246;2023-02-04T10:31:30;101404.81;;;0.52;55.53
22662;BME280;11497;52.222;21.246;2023-02-04T10:36:42;101412.03;;;0.65;58.75
22662;BME280;11497;52.222;21.246;2023-02-04T10:39:12;101417.50;;;0.43;59.65
22662;BME280;11497;52.222;21.246;2023-02-04T10:41:51;101410.47;;;0.36;60.39
22662;BME280;11497;52.222;21.246;2023-02-04T10:49:20;101418.44;;;0.12;62.05
22662;BME280;11497;52.222;21.246;2023-02-04T10:51:50;101410.69;;;0.10;62.42
22662;BME280;11497;52.222;21.246;2023-02-04T10:54:22;101419.78;;;0.30;63.04
22662;BME280;11497;52.222;21.246;2023-02-04T10:57:07;101421.53;;;0.31;63.48
22662;BME280;11497;52.222;21.246;2023-02-04T10:59:36;101426.03;;;0.07;62.75
22662;BME280;11497;52.222;21.246;2023-02-04T11:02:31;101431.09;;;0.04;63.45
22662;BME280;11497;52.222;21.246;2023-02-04T11:05:00;101432.97;;;0.10;64.10
22662;BME280;11497;52.222;21.246;2023-02-04T11:07:28;101442.53;;;0.14;64.33
22662;BME280;11497;52.222;21.246;2023-02-04T11:09:57;101441.72;;;0.16;64.53
22662;BME280;11497;52.222;21.246;2023-02-04T11:15:54;101431.75;;;0.28;64.31
22662;BME280;11497;52.222;21.246;2023-02-04T11:20:52;101448.28;;;0.05;64.42
22662;BME280;11497;52.222;21.246;2023-02-04T11:23:29;101443.56;;;0.20;65.25
22662;BME280;11497;52.222;21.246;2023-02-04T11:26:19;101448.38;;;0.08;65.14
22662;BME280;11497;52.222;21.246;2023-02-04T11:31:27;101438.53;;;0.61;65.77
22662;BME280;11497;52.222;21.246;2023-02-04T11:37:03;101428.97;;;0.93;65.03
22662;BME280;11497;52.222;21.246;2023-02-04T11:39:40;101442.44;;;1.19;64.74
22662;BME280;11497;52.222;21.246;2023-02-04T11:42:22;101444.56;;;0.99;64.30
22662;BME280;11497;52.222;21.246;2023-02-04T11:44:53;101451.09;;;0.83;64.12
22662;BME280;11497;52.222;21.246;2023-02-04T11:47:23;101450.19;;;0.81;64.42
22662;BME280;11497;52.222;21.246;2023-02-04T11:49:58;101449.28;;;0.79;64.43
22662;BME280;11497;52.222;21.246;2023-02-04T11:52:28;101450.63;;;0.63;64.63
22662;BME280;11497;52.222;21.246;2023-02-04T11:54:58;101445.88;;;0.46;64.52
22662;BME280;11497;52.222;21.246;2023-02-04T11:57:26;101446.94;;;0.54;64.94
22662;BME280;11497;52.222;21.246;2023-02-04T11:59:55;101450.97;;;0.41;65.16
22662;BME280;11497;52.222;21.246;2023-02-04T12:02:23;101447.34;;;0.35;65.07
22662;BME280;11497;52.222;21.246;2023-02-04T12:05:10;101441.13;;;0.61;65.45
22662;BME280;11497;52.222;21.246;2023-02-04T12:07:38;101452.84;;;0.84;65.48
22662;BME280;11497;52.222;21.246;2023-02-04T12:10:14;101447.47;;;0.75;64.70
22662;BME280;11497;52.222;21.246;2023-02-04T12:12:51;101452.97;;;0.90;65.17
22662;BME280;11497;52.222;21.246;2023-02-04T12:15:33;101460.84;;;0.96;64.48
22662;BME280;11497;52.222;21.246;2023-02-04T12:18:09;101454.16;;;1.05;64.18
22662;BME280;11497;52.222;21.246;2023-02-04T12:20:39;101458.53;;;1.09;63.82
22662;BME280;11497;52.222;21.246;2023-02-04T12:23:07;101458.56;;;1.10;63.10
22662;BME280;11497;52.222;21.246;2023-02-04T12:25:35;101465.25;;;1.02;62.88
22662;BME280;11497;52.222;21.246;2023-02-04T12:28:03;101462.00;;;1.09;63.28
22662;BME280;11497;52.222;21.246;2023-02-04T12:30:31;101462.44;;;0.91;63.19
22662;BME280;11497;52.222;21.246;2023-02-04T12:32:59;101466.56;;;0.83;63.57
22662;BME280;11497;52.222;21.246;2023-02-04T12:35:27;101462.25;;;0.82;63.85
22662;BME280;11497;52.222;21.246;2023-02-04T12:37:54;101482.78;;;0.79;63.93
22662;BME280;11497;52.222;21.246;2023-02-04T12:40:23;101482.56;;;0.70;64.15
22662;BME280;11497;52.222;21.246;2023-02-04T12:42:50;101484.22;;;0.68;64.40
22662;BME280;11497;52.222;21.246;2023-02-04T12:45:18;101480.75;;;0.66;64.26
22662;BME280;11497;52.222;21.246;2023-02-04T12:47:47;101491.38;;;0.45;64.32
22662;BME280;11497;52.222;21.246;2023-02-04T12:50:16;101496.63;;;0.15;63.55
22662;BME280;11497;52.222;21.246;2023-02-04T12:52:51;101502.91;;;-0.37;63.22
22662;BME280;11497;52.222;21.246;2023-02-04T12:55:22;101499.22;;;-0.46;62.57
22662;BME280;11497;52.222;21.246;2023-02-04T12:57:50;101515.44;;;-0.49;62.27
22662;BME280;11497;52.222;21.246;2023-02-04T13:00:20;101510.28;;;-0.49;62.14
22662;BME280;11497;52.222;21.246;2023-02-04T13:02:48;101514.56;;;-0.49;61.76
22662;BME280;11497;52.222;21.246;2023-02-04T13:05:17;101512.84;;;-0.49;61.48
22662;BME280;11497;52.222;21.246;2023-02-04T13:07:45;101516.16;;;-0.23;61.79
22662;BME280;11497;52.222;21.246;2023-02-04T13:10:13;101524.47;;;-0.03;61.61